sensor_id;sensor_type;location;lat;lon;timestamp;P1;durP1;ratioP1;P2;durP2;ratioP2
13218;SDS011;6674;49.152;11.918;2022-12-24T00:00:37;3.47;;;1.33;;
13218;SDS011;6674;49.152;11.918;2022-12-24T00:03:03;3.87;;;1.23;;
13218;SDS011;6674;49.152;11.918;2022-12-24T00:05:30;3.70;;;1.47;;
13218;SDS011;6674;49.152;11.918;2022-12-24T00:07:57;3.13;;;1.40;;
13218;SDS011;6674;49.152;11.918;2022-12-24T00:10:23;5.50;;;1.50;;
13218;SDS011;6674;49.152;11.918;2022-12-24T00:12:51;4.47;;;1.67;;
13218;SDS011;6674;49.152;11.918;2022-12-24T00:15:18;5.30;;;1.70;;
13218;SDS011;6674;49.152;11.918;2022-12-24T00:17:44;4.23;;;1.43;;
13218;SDS011;6674;49.152;11.918;2022-12-24T00:20:11;5.17;;;1.67;;
13218;SDS011;6674;49.152;11.918;2022-12-24T00:22:38;3.53;;;1.50;;
13218;SDS011;6674;49.152;11.918;2022-12-24T00:25:05;3.70;;;1.60;;
13218;SDS011;6674;49.152;11.918;2022-12-24T00:27:32;3.57;;;1.50;;
13218;SDS011;6674;49.152;11.918;2022-12-24T00:30:00;4.77;;;1.63;;
13218;SDS011;6674;49.152;11.918;2022-12-24T00:32:26;3.67;;;1.50;;
13218;SDS011;6674;49.152;11.918;2022-12-24T00:34:53;5.33;;;1.60;;
13218;SDS011;6674;49.152;11.918;2022-12-24T00:37:19;3.13;;;1.30;;
13218;SDS011;6674;49.152;11.918;2022-12-24T00:39:46;5.57;;;1.53;;
13218;SDS011;6674;49.152;11.918;2022-12-24T00:42:12;2.27;;;1.27;;
13218;SDS011;6674;49.152;11.918;2022-12-24T00:44:39;3.83;;;1.20;;
13218;SDS011;6674;49.152;11.918;2022-12-24T00:47:07;4.10;;;1.40;;
13218;SDS011;6674;49.152;11.918;2022-12-24T00:49:33;4.80;;;1.93;;
13218;SDS011;6674;49.152;11.918;2022-12-24T00:52:00;6.83;;;1.70;;
13218;SDS011;6674;49.152;11.918;2022-12-24T00:54:27;2.40;;;0.97;;
13218;SDS011;6674;49.152;11.918;2022-12-24T00:56:54;1.90;;;1.30;;
13218;SDS011;6674;49.152;11.918;2022-12-24T00:59:20;3.23;;;1.50;;
13218;SDS011;6674;49.152;11.918;2022-12-24T01:01:47;3.47;;;1.70;;
13218;SDS011;6674;49.152;11.918;2022-12-24T01:04:15;4.30;;;1.40;;
13218;SDS011;6674;49.152;11.918;2022-12-24T01:07:14;3.23;;;1.37;;
13218;SDS011;6674;49.152;11.918;2022-12-24T01:09:40;4.10;;;1.17;;
13218;SDS011;6674;49.152;11.918;2022-12-24T01:12:07;2.70;;;1.33;;
13218;SDS011;6674;49.152;11.918;2022-12-24T01:14:34;4.03;;;1.37;;
13218;SDS011;6674;49.152;11.918;2022-12-24T01:17:02;3.03;;;1.40;;
13218;SDS011;6674;49.152;11.918;2022-12-24T01:19:30;4.40;;;1.53;;
13218;SDS011;6674;49.152;11.918;2022-12-24T01:21:57;5.90;;;1.50;;
13218;SDS011;6674;49.152;11.918;2022-12-24T01:24:23;3.13;;;1.20;;
13218;SDS011;6674;49.152;11.918;2022-12-24T01:26:50;2.90;;;1.23;;
13218;SDS011;6674;49.152;11.918;2022-12-24T01:29:17;3.90;;;1.43;;
13218;SDS011;6674;49.152;11.918;2022-12-24T01:31:43;3.73;;;1.30;;
13218;SDS011;6674;49.152;11.918;2022-12-24T01:34:10;4.83;;;1.33;;
13218;SDS011;6674;49.152;11.918;2022-12-24T01:36:38;3.40;;;1.53;;
13218;SDS011;6674;49.152;11.918;2022-12-24T01:39:04;5.50;;;1.40;;
13218;SDS011;6674;49.152;11.918;2022-12-24T01:41:31;3.97;;;1.60;;
13218;SDS011;6674;49.152;11.918;2022-12-24T01:44:19;3.90;;;1.47;;
13218;SDS011;6674;49.152;11.918;2022-12-24T01:46:51;3.00;;;1.57;;
13218;SDS011;6674;49.152;11.918;2022-12-24T01:49:20;5.73;;;1.57;;
13218;SDS011;6674;49.152;11.918;2022-12-24T01:51:48;4.77;;;1.90;;
13218;SDS011;6674;49.152;11.918;2022-12-24T01:54:20;4.70;;;1.57;;
13218;SDS011;6674;49.152;11.918;2022-12-24T01:56:51;5.93;;;2.17;;
13218;SDS011;6674;49.152;11.918;2022-12-24T01:59:20;6.80;;;2.13;;
13218;SDS011;6674;49.152;11.918;2022-12-24T02:01:48;6.27;;;1.70;;
13218;SDS011;6674;49.152;11.918;2022-12-24T02:04:16;4.43;;;1.67;;
13218;SDS011;6674;49.152;11.918;2022-12-24T02:06:52;5.50;;;1.87;;
13218;SDS011;6674;49.152;11.918;2022-12-24T02:09:19;6.43;;;1.80;;
13218;SDS011;6674;49.152;11.918;2022-12-24T02:11:45;7.53;;;1.80;;
13218;SDS011;6674;49.152;11.918;2022-12-24T02:14:12;4.80;;;1.40;;
13218;SDS011;6674;49.152;11.918;2022-12-24T02:16:42;4.47;;;1.33;;
13218;SDS011;6674;49.152;11.918;2022-12-24T02:22:31;3.70;;;1.20;;
13218;SDS011;6674;49.152;11.918;2022-12-24T02:25:12;4.00;;;1.37;;
13218;SDS011;6674;49.152;11.918;2022-12-24T02:27:53;3.43;;;1.50;;
13218;SDS011;6674;49.152;11.918;2022-12-24T02:30:24;4.17;;;1.70;;
13218;SDS011;6674;49.152;11.918;2022-12-24T02:32:59;3.33;;;1.30;;
13218;SDS011;6674;49.152;11.918;2022-12-24T02:35:39;2.87;;;1.00;;
13218;SDS011;6674;49.152;11.918;2022-12-24T02:38:13;3.97;;;1.30;;
13218;SDS011;6674;49.152;11.918;2022-12-24T02:40:46;3.37;;;1.40;;
13218;SDS011;6674;49.152;11.918;2022-12-24T02:43:18;4.30;;;2.00;;
13218;SDS011;6674;49.152;11.918;2022-12-24T02:45:50;3.50;;;1.40;;
13218;SDS011;6674;49.152;11.918;2022-12-24T02:48:19;3.60;;;1.43;;
13218;SDS011;6674;49.152;11.918;2022-12-24T02:50:58;3.67;;;1.57;;
13218;SDS011;6674;49.152;11.918;2022-12-24T02:53:28;4.43;;;1.77;;
13218;SDS011;6674;49.152;11.918;2022-12-24T02:55:58;5.60;;;1.73;;
13218;SDS011;6674;49.152;11.918;2022-12-24T02:58:47;4.27;;;1.70;;
13218;SDS011;6674;49.152;11.918;2022-12-24T03:01:29;4.70;;;1.47;;
13218;SDS011;6674;49.152;11.918;2022-12-24T03:04:10;4.63;;;1.47;;
13218;SDS011;6674;49.152;11.918;2022-12-24T03:06:42;4.53;;;1.57;;
13218;SDS011;6674;49.152;11.918;2022-12-24T03:09:17;6.53;;;1.37;;
13218;SDS011;6674;49.152;11.918;2022-12-24T03:11:52;4.37;;;1.70;;
13218;SDS011;6674;49.152;11.918;2022-12-24T03:14:23;6.27;;;1.73;;
13218;SDS011;6674;49.152;11.918;2022-12-24T03:16:54;4.73;;;1.67;;
13218;SDS011;6674;49.152;11.918;2022-12-24T03:19:22;5.73;;;1.90;;
13218;SDS011;6674;49.152;11.918;2022-12-24T03:21:50;6.07;;;1.90;;
13218;SDS011;6674;49.152;11.918;2022-12-24T03:24:19;3.33;;;1.60;;
13218;SDS011;6674;49.152;11.918;2022-12-24T03:26:46;6.73;;;1.67;;
13218;SDS011;6674;49.152;11.918;2022-12-24T03:29:13;4.97;;;2.13;;
13218;SDS011;6674;49.152;11.918;2022-12-24T03:31:43;7.77;;;2.20;;
13218;SDS011;6674;49.152;11.918;2022-12-24T03:34:12;5.10;;;1.53;;
13218;SDS011;6674;49.152;11.918;2022-12-24T03:36:40;5.03;;;1.93;;
13218;SDS011;6674;49.152;11.918;2022-12-24T03:39:06;3.63;;;1.57;;
13218;SDS011;6674;49.152;11.918;2022-12-24T03:41:34;4.43;;;1.70;;
13218;SDS011;6674;49.152;11.918;2022-12-24T03:44:01;3.43;;;1.33;;
13218;SDS011;6674;49.152;11.918;2022-12-24T03:46:27;3.60;;;1.40;;
13218;SDS011;6674;49.152;11.918;2022-12-24T03:48:54;6.10;;;1.80;;
13218;SDS011;6674;49.152;11.918;2022-12-24T03:51:22;4.43;;;1.80;;
13218;SDS011;6674;49.152;11.918;2022-12-24T03:53:50;3.87;;;1.67;;
13218;SDS011;6674;49.152;11.918;2022-12-24T03:56:17;7.13;;;2.13;;
13218;SDS011;6674;49.152;11.918;2022-12-24T03:58:44;3.37;;;1.27;;
13218;SDS011;6674;49.152;11.918;2022-12-24T04:01:11;6.83;;;1.83;;
13218;SDS011;6674;49.152;11.918;2022-12-24T04:03:37;5.73;;;1.80;;
13218;SDS011;6674;49.152;11.918;2022-12-24T04:06:05;4.27;;;1.63;;
13218;SDS011;6674;49.152;11.918;2022-12-24T04:08:34;2.97;;;1.53;;
13218;SDS011;6674;49.152;11.918;2022-12-24T04:11:03;6.73;;;1.77;;
13218;SDS011;6674;49.152;11.918;2022-12-24T04:13:30;4.60;;;1.90;;
13218;SDS011;6674;49.152;11.918;2022-12-24T04:15:57;5.00;;;1.93;;
13218;SDS011;6674;49.152;11.918;2022-12-24T04:18:24;6.40;;;2.20;;
13218;SDS011;6674;49.152;11.918;2022-12-24T04:20:51;5.03;;;1.90;;
13218;SDS011;6674;49.152;11.918;2022-12-24T04:23:17;2.90;;;1.47;;
13218;SDS011;6674;49.152;11.918;2022-12-24T04:25:45;5.20;;;1.60;;
13218;SDS011;6674;49.152;11.918;2022-12-24T04:28:12;2.93;;;1.60;;
13218;SDS011;6674;49.152;11.918;2022-12-24T04:30:39;6.67;;;1.83;;
13218;SDS011;6674;49.152;11.918;2022-12-24T04:33:07;4.63;;;1.93;;
13218;SDS011;6674;49.152;11.918;2022-12-24T04:35:37;3.60;;;1.87;;
13218;SDS011;6674;49.152;11.918;2022-12-24T04:38:04;6.80;;;1.93;;
13218;SDS011;6674;49.152;11.918;2022-12-24T04:40:31;4.97;;;1.90;;
13218;SDS011;6674;49.152;11.918;2022-12-24T04:42:59;6.53;;;2.03;;
13218;SDS011;6674;49.152;11.918;2022-12-24T04:45:25;2.73;;;1.70;;
13218;SDS011;6674;49.152;11.918;2022-12-24T04:47:52;6.57;;;2.00;;
13218;SDS011;6674;49.152;11.918;2022-12-24T04:50:18;6.27;;;2.10;;
13218;SDS011;6674;49.152;11.918;2022-12-24T04:52:45;5.90;;;1.90;;
13218;SDS011;6674;49.152;11.918;2022-12-24T04:55:11;5.33;;;1.50;;
13218;SDS011;6674;49.152;11.918;2022-12-24T04:57:38;4.80;;;1.73;;
13218;SDS011;6674;49.152;11.918;2022-12-24T05:00:07;2.60;;;1.70;;
13218;SDS011;6674;49.152;11.918;2022-12-24T05:02:35;5.10;;;2.10;;
13218;SDS011;6674;49.152;11.918;2022-12-24T05:05:01;5.20;;;1.60;;
13218;SDS011;6674;49.152;11.918;2022-12-24T05:07:28;4.77;;;2.00;;
13218;SDS011;6674;49.152;11.918;2022-12-24T05:09:55;4.73;;;1.70;;
13218;SDS011;6674;49.152;11.918;2022-12-24T05:12:22;5.77;;;2.07;;
13218;SDS011;6674;49.152;11.918;2022-12-24T05:14:48;4.20;;;1.80;;
13218;SDS011;6674;49.152;11.918;2022-12-24T05:17:16;5.90;;;1.83;;
13218;SDS011;6674;49.152;11.918;2022-12-24T05:19:43;4.40;;;2.13;;
13218;SDS011;6674;49.152;11.918;2022-12-24T05:22:09;6.33;;;1.90;;
13218;SDS011;6674;49.152;11.918;2022-12-24T05:25:05;5.40;;;2.00;;
13218;SDS011;6674;49.152;11.918;2022-12-24T05:27:49;3.83;;;1.70;;
13218;SDS011;6674;49.152;11.918;2022-12-24T05:30:17;3.20;;;1.53;;
13218;SDS011;6674;49.152;11.918;2022-12-24T05:32:45;6.20;;;2.10;;
13218;SDS011;6674;49.152;11.918;2022-12-24T05:35:11;3.97;;;1.83;;
13218;SDS011;6674;49.152;11.918;2022-12-24T05:37:38;5.43;;;2.20;;
13218;SDS011;6674;49.152;11.918;2022-12-24T05:40:05;3.93;;;1.73;;
13218;SDS011;6674;49.152;11.918;2022-12-24T05:42:32;6.23;;;2.00;;
13218;SDS011;6674;49.152;11.918;2022-12-24T05:44:59;3.00;;;1.70;;
13218;SDS011;6674;49.152;11.918;2022-12-24T05:47:26;8.03;;;1.93;;
13218;SDS011;6674;49.152;11.918;2022-12-24T05:49:54;5.70;;;2.17;;
13218;SDS011;6674;49.152;11.918;2022-12-24T05:52:20;5.10;;;1.70;;
13218;SDS011;6674;49.152;11.918;2022-12-24T05:54:47;4.90;;;1.63;;
13218;SDS011;6674;49.152;11.918;2022-12-24T05:57:13;4.73;;;1.83;;
13218;SDS011;6674;49.152;11.918;2022-12-24T05:59:41;4.47;;;1.83;;
13218;SDS011;6674;49.152;11.918;2022-12-24T06:02:07;6.93;;;2.00;;
13218;SDS011;6674;49.152;11.918;2022-12-24T06:04:34;5.27;;;1.50;;
13218;SDS011;6674;49.152;11.918;2022-12-24T06:07:02;7.17;;;2.07;;
13218;SDS011;6674;49.152;11.918;2022-12-24T06:09:28;7.07;;;1.97;;
13218;SDS011;6674;49.152;11.918;2022-12-24T06:11:55;5.87;;;1.67;;
13218;SDS011;6674;49.152;11.918;2022-12-24T06:14:21;6.40;;;2.10;;
13218;SDS011;6674;49.152;11.918;2022-12-24T06:16:48;5.10;;;1.70;;
13218;SDS011;6674;49.152;11.918;2022-12-24T06:19:14;4.83;;;1.90;;
13218;SDS011;6674;49.152;11.918;2022-12-24T06:21:41;8.00;;;2.10;;
13218;SDS011;6674;49.152;11.918;2022-12-24T06:24:09;5.43;;;1.73;;
13218;SDS011;6674;49.152;11.918;2022-12-24T06:26:35;5.53;;;1.70;;
13218;SDS011;6674;49.152;11.918;2022-12-24T06:29:02;7.53;;;2.00;;
13218;SDS011;6674;49.152;11.918;2022-12-24T06:31:29;5.87;;;1.93;;
13218;SDS011;6674;49.152;11.918;2022-12-24T06:33:55;7.77;;;2.10;;
13218;SDS011;6674;49.152;11.918;2022-12-24T06:36:22;4.23;;;1.83;;
13218;SDS011;6674;49.152;11.918;2022-12-24T06:38:51;5.20;;;1.70;;
13218;SDS011;6674;49.152;11.918;2022-12-24T06:41:20;5.30;;;2.13;;
13218;SDS011;6674;49.152;11.918;2022-12-24T06:43:48;7.07;;;2.10;;
13218;SDS011;6674;49.152;11.918;2022-12-24T06:46:15;4.33;;;1.90;;
13218;SDS011;6674;49.152;11.918;2022-12-24T06:48:43;5.70;;;2.40;;
13218;SDS011;6674;49.152;11.918;2022-12-24T06:51:10;9.47;;;2.47;;
13218;SDS011;6674;49.152;11.918;2022-12-24T06:53:37;5.30;;;1.70;;
13218;SDS011;6674;49.152;11.918;2022-12-24T06:56:04;6.37;;;2.30;;
13218;SDS011;6674;49.152;11.918;2022-12-24T06:58:34;7.87;;;2.23;;
13218;SDS011;6674;49.152;11.918;2022-12-24T07:01:01;7.70;;;2.30;;
13218;SDS011;6674;49.152;11.918;2022-12-24T07:03:28;6.43;;;2.27;;
13218;SDS011;6674;49.152;11.918;2022-12-24T07:05:55;6.97;;;2.17;;
13218;SDS011;6674;49.152;11.918;2022-12-24T07:08:21;6.10;;;2.10;;
13218;SDS011;6674;49.152;11.918;2022-12-24T07:10:48;3.93;;;2.27;;
13218;SDS011;6674;49.152;11.918;2022-12-24T07:13:15;5.83;;;2.23;;
13218;SDS011;6674;49.152;11.918;2022-12-24T07:15:43;5.97;;;2.43;;
13218;SDS011;6674;49.152;11.918;2022-12-24T07:18:10;7.03;;;2.07;;
13218;SDS011;6674;49.152;11.918;2022-12-24T07:20:37;7.73;;;2.33;;
13218;SDS011;6674;49.152;11.918;2022-12-24T07:23:04;9.27;;;2.23;;
13218;SDS011;6674;49.152;11.918;2022-12-24T07:25:31;8.47;;;2.77;;
13218;SDS011;6674;49.152;11.918;2022-12-24T07:27:57;7.37;;;2.50;;
13218;SDS011;6674;49.152;11.918;2022-12-24T07:30:24;5.93;;;2.60;;
13218;SDS011;6674;49.152;11.918;2022-12-24T07:32:52;6.73;;;2.57;;
13218;SDS011;6674;49.152;11.918;2022-12-24T07:35:18;6.63;;;2.30;;
13218;SDS011;6674;49.152;11.918;2022-12-24T07:37:45;6.63;;;2.43;;
13218;SDS011;6674;49.152;11.918;2022-12-24T07:40:12;7.00;;;2.57;;
13218;SDS011;6674;49.152;11.918;2022-12-24T07:42:39;6.07;;;2.70;;
13218;SDS011;6674;49.152;11.918;2022-12-24T07:45:06;8.23;;;2.70;;
13218;SDS011;6674;49.152;11.918;2022-12-24T07:47:33;10.53;;;2.87;;
13218;SDS011;6674;49.152;11.918;2022-12-24T07:50:01;10.13;;;2.70;;
13218;SDS011;6674;49.152;11.918;2022-12-24T07:52:28;4.87;;;2.60;;
13218;SDS011;6674;49.152;11.918;2022-12-24T07:54:54;8.67;;;2.50;;
13218;SDS011;6674;49.152;11.918;2022-12-24T07:57:21;10.83;;;3.07;;
13218;SDS011;6674;49.152;11.918;2022-12-24T07:59:47;7.27;;;3.10;;
13218;SDS011;6674;49.152;11.918;2022-12-24T08:02:14;9.23;;;2.90;;
13218;SDS011;6674;49.152;11.918;2022-12-24T08:04:41;10.40;;;3.20;;
13218;SDS011;6674;49.152;11.918;2022-12-24T08:07:09;7.83;;;2.83;;
13218;SDS011;6674;49.152;11.918;2022-12-24T08:09:35;11.90;;;2.87;;
13218;SDS011;6674;49.152;11.918;2022-12-24T08:12:03;9.93;;;2.93;;
13218;SDS011;6674;49.152;11.918;2022-12-24T08:14:31;6.77;;;2.60;;
13218;SDS011;6674;49.152;11.918;2022-12-24T08:16:57;7.83;;;3.17;;
13218;SDS011;6674;49.152;11.918;2022-12-24T08:19:24;9.30;;;3.10;;
13218;SDS011;6674;49.152;11.918;2022-12-24T08:21:51;11.67;;;3.03;;
13218;SDS011;6674;49.152;11.918;2022-12-24T08:24:19;8.83;;;3.13;;
13218;SDS011;6674;49.152;11.918;2022-12-24T08:26:45;13.83;;;3.30;;
13218;SDS011;6674;49.152;11.918;2022-12-24T08:29:12;7.30;;;2.87;;
13218;SDS011;6674;49.152;11.918;2022-12-24T08:31:38;9.73;;;2.80;;
13218;SDS011;6674;49.152;11.918;2022-12-24T08:34:06;9.17;;;2.90;;
13218;SDS011;6674;49.152;11.918;2022-12-24T08:36:33;8.60;;;3.00;;
13218;SDS011;6674;49.152;11.918;2022-12-24T08:39:00;12.80;;;3.07;;
13218;SDS011;6674;49.152;11.918;2022-12-24T08:41:29;8.13;;;2.60;;
13218;SDS011;6674;49.152;11.918;2022-12-24T08:43:56;10.63;;;3.13;;
13218;SDS011;6674;49.152;11.918;2022-12-24T08:46:22;12.53;;;3.47;;
13218;SDS011;6674;49.152;11.918;2022-12-24T08:48:49;9.73;;;3.03;;
13218;SDS011;6674;49.152;11.918;2022-12-24T08:51:16;11.00;;;3.17;;
13218;SDS011;6674;49.152;11.918;2022-12-24T08:53:43;7.67;;;2.47;;
13218;SDS011;6674;49.152;11.918;2022-12-24T08:56:11;6.97;;;2.50;;
13218;SDS011;6674;49.152;11.918;2022-12-24T08:58:39;6.57;;;2.67;;
13218;SDS011;6674;49.152;11.918;2022-12-24T09:01:09;7.23;;;2.90;;
13218;SDS011;6674;49.152;11.918;2022-12-24T09:03:37;11.37;;;2.63;;
13218;SDS011;6674;49.152;11.918;2022-12-24T09:06:03;8.53;;;2.87;;
13218;SDS011;6674;49.152;11.918;2022-12-24T09:08:31;9.73;;;2.27;;
13218;SDS011;6674;49.152;11.918;2022-12-24T09:11:01;7.10;;;2.43;;
13218;SDS011;6674;49.152;11.918;2022-12-24T09:13:28;9.53;;;2.50;;
13218;SDS011;6674;49.152;11.918;2022-12-24T09:15:56;7.87;;;2.60;;
13218;SDS011;6674;49.152;11.918;2022-12-24T09:18:23;11.13;;;3.20;;
13218;SDS011;6674;49.152;11.918;2022-12-24T09:20:49;7.90;;;2.73;;
13218;SDS011;6674;49.152;11.918;2022-12-24T09:23:16;8.17;;;2.77;;
13218;SDS011;6674;49.152;11.918;2022-12-24T09:25:43;10.07;;;2.50;;
13218;SDS011;6674;49.152;11.918;2022-12-24T09:28:10;7.13;;;2.53;;
13218;SDS011;6674;49.152;11.918;2022-12-24T09:30:36;7.63;;;2.80;;
13218;SDS011;6674;49.152;11.918;2022-12-24T09:33:04;10.43;;;2.93;;
13218;SDS011;6674;49.152;11.918;2022-12-24T09:35:31;8.33;;;3.03;;
13218;SDS011;6674;49.152;11.918;2022-12-24T09:37:58;9.27;;;2.90;;
13218;SDS011;6674;49.152;11.918;2022-12-24T09:40:28;9.33;;;2.90;;
13218;SDS011;6674;49.152;11.918;2022-12-24T09:43:01;9.83;;;2.80;;
13218;SDS011;6674;49.152;11.918;2022-12-24T09:45:32;7.70;;;2.57;;
13218;SDS011;6674;49.152;11.918;2022-12-24T09:48:08;7.57;;;2.77;;
13218;SDS011;6674;49.152;11.918;2022-12-24T09:50:40;9.20;;;3.10;;
13218;SDS011;6674;49.152;11.918;2022-12-24T09:53:12;9.77;;;2.60;;
13218;SDS011;6674;49.152;11.918;2022-12-24T09:55:43;8.10;;;3.03;;
13218;SDS011;6674;49.152;11.918;2022-12-24T09:58:15;7.63;;;2.60;;
13218;SDS011;6674;49.152;11.918;2022-12-24T10:00:47;10.53;;;2.93;;
13218;SDS011;6674;49.152;11.918;2022-12-24T10:03:15;9.70;;;2.70;;
13218;SDS011;6674;49.152;11.918;2022-12-24T10:05:44;8.37;;;3.20;;
13218;SDS011;6674;49.152;11.918;2022-12-24T10:08:18;9.97;;;2.93;;
13218;SDS011;6674;49.152;11.918;2022-12-24T10:10:52;8.17;;;2.50;;
13218;SDS011;6674;49.152;11.918;2022-12-24T10:13:22;6.63;;;2.50;;
13218;SDS011;6674;49.152;11.918;2022-12-24T10:15:59;10.70;;;3.60;;
13218;SDS011;6674;49.152;11.918;2022-12-24T10:18:33;9.30;;;3.17;;
13218;SDS011;6674;49.152;11.918;2022-12-24T10:21:11;13.07;;;3.30;;
13218;SDS011;6674;49.152;11.918;2022-12-24T10:23:41;11.07;;;2.73;;
13218;SDS011;6674;49.152;11.918;2022-12-24T10:26:14;9.03;;;2.67;;
13218;SDS011;6674;49.152;11.918;2022-12-24T10:28:46;10.53;;;3.40;;
13218;SDS011;6674;49.152;11.918;2022-12-24T10:31:16;8.37;;;2.97;;
13218;SDS011;6674;49.152;11.918;2022-12-24T10:33:48;10.17;;;2.90;;
13218;SDS011;6674;49.152;11.918;2022-12-24T10:36:19;11.57;;;3.17;;
13218;SDS011;6674;49.152;11.918;2022-12-24T10:38:51;7.43;;;2.60;;
13218;SDS011;6674;49.152;11.918;2022-12-24T10:41:18;12.37;;;2.77;;
13218;SDS011;6674;49.152;11.918;2022-12-24T10:43:45;8.80;;;3.07;;
13218;SDS011;6674;49.152;11.918;2022-12-24T10:46:15;9.60;;;3.10;;
13218;SDS011;6674;49.152;11.918;2022-12-24T10:48:44;8.73;;;3.00;;
13218;SDS011;6674;49.152;11.918;2022-12-24T10:51:18;8.77;;;2.63;;
13218;SDS011;6674;49.152;11.918;2022-12-24T10:53:49;8.67;;;3.03;;
13218;SDS011;6674;49.152;11.918;2022-12-24T10:56:18;10.73;;;3.37;;
13218;SDS011;6674;49.152;11.918;2022-12-24T10:58:49;11.93;;;3.10;;
13218;SDS011;6674;49.152;11.918;2022-12-24T11:01:17;10.10;;;3.00;;
13218;SDS011;6674;49.152;11.918;2022-12-24T11:03:44;10.07;;;2.90;;
13218;SDS011;6674;49.152;11.918;2022-12-24T11:06:13;11.73;;;3.27;;
13218;SDS011;6674;49.152;11.918;2022-12-24T11:08:45;11.50;;;3.40;;
13218;SDS011;6674;49.152;11.918;2022-12-24T11:11:12;10.27;;;3.10;;
13218;SDS011;6674;49.152;11.918;2022-12-24T11:13:43;8.80;;;3.23;;
13218;SDS011;6674;49.152;11.918;2022-12-24T11:16:15;9.83;;;2.90;;
13218;SDS011;6674;49.152;11.918;2022-12-24T11:18:46;10.83;;;3.30;;
13218;SDS011;6674;49.152;11.918;2022-12-24T11:21:19;12.60;;;3.70;;
13218;SDS011;6674;49.152;11.918;2022-12-24T11:23:48;8.10;;;2.60;;
13218;SDS011;6674;49.152;11.918;2022-12-24T11:26:20;12.03;;;3.47;;
13218;SDS011;6674;49.152;11.918;2022-12-24T11:28:55;11.50;;;3.00;;
13218;SDS011;6674;49.152;11.918;2022-12-24T11:31:30;9.00;;;3.03;;
13218;SDS011;6674;49.152;11.918;2022-12-24T11:34:02;9.33;;;2.90;;
13218;SDS011;6674;49.152;11.918;2022-12-24T11:36:44;6.97;;;2.63;;
13218;SDS011;6674;49.152;11.918;2022-12-24T11:39:15;11.57;;;2.73;;
13218;SDS011;6674;49.152;11.918;2022-12-24T11:41:45;7.53;;;3.03;;
13218;SDS011;6674;49.152;11.918;2022-12-24T11:44:12;8.40;;;3.10;;
13218;SDS011;6674;49.152;11.918;2022-12-24T11:46:41;7.30;;;2.67;;
13218;SDS011;6674;49.152;11.918;2022-12-24T11:49:21;10.00;;;2.80;;
13218;SDS011;6674;49.152;11.918;2022-12-24T11:54:49;6.97;;;2.53;;
13218;SDS011;6674;49.152;11.918;2022-12-24T11:57:36;8.60;;;2.60;;
13218;SDS011;6674;49.152;11.918;2022-12-24T12:00:10;7.33;;;2.57;;
13218;SDS011;6674;49.152;11.918;2022-12-24T12:02:37;8.03;;;2.50;;
13218;SDS011;6674;49.152;11.918;2022-12-24T12:05:08;8.80;;;2.90;;
13218;SDS011;6674;49.152;11.918;2022-12-24T12:07:40;7.60;;;2.30;;
13218;SDS011;6674;49.152;11.918;2022-12-24T12:10:10;6.57;;;2.60;;
13218;SDS011;6674;49.152;11.918;2022-12-24T12:12:43;7.87;;;2.43;;
13218;SDS011;6674;49.152;11.918;2022-12-24T12:15:12;7.60;;;2.80;;
13218;SDS011;6674;49.152;11.918;2022-12-24T12:17:43;6.30;;;2.47;;
13218;SDS011;6674;49.152;11.918;2022-12-24T12:20:14;7.67;;;2.57;;
13218;SDS011;6674;49.152;11.918;2022-12-24T12:22:49;8.57;;;3.17;;
13218;SDS011;6674;49.152;11.918;2022-12-24T12:25:22;8.93;;;2.70;;
13218;SDS011;6674;49.152;11.918;2022-12-24T12:27:53;9.03;;;2.83;;
13218;SDS011;6674;49.152;11.918;2022-12-24T12:30:22;11.33;;;3.30;;
13218;SDS011;6674;49.152;11.918;2022-12-24T12:32:50;6.40;;;2.23;;
13218;SDS011;6674;49.152;11.918;2022-12-24T12:35:23;9.63;;;2.90;;
13218;SDS011;6674;49.152;11.918;2022-12-24T12:37:54;9.03;;;2.70;;
13218;SDS011;6674;49.152;11.918;2022-12-24T12:40:25;7.70;;;2.60;;
13218;SDS011;6674;49.152;11.918;2022-12-24T12:43:02;7.20;;;2.60;;
13218;SDS011;6674;49.152;11.918;2022-12-24T12:45:36;9.40;;;2.70;;
13218;SDS011;6674;49.152;11.918;2022-12-24T12:48:14;8.03;;;2.63;;
13218;SDS011;6674;49.152;11.918;2022-12-24T12:50:55;10.03;;;2.90;;
13218;SDS011;6674;49.152;11.918;2022-12-24T12:53:33;7.63;;;2.47;;
13218;SDS011;6674;49.152;11.918;2022-12-24T12:56:17;4.83;;;2.27;;
13218;SDS011;6674;49.152;11.918;2022-12-24T12:58:56;6.90;;;2.27;;
13218;SDS011;6674;49.152;11.918;2022-12-24T13:01:29;7.63;;;2.50;;
13218;SDS011;6674;49.152;11.918;2022-12-24T13:04:08;8.17;;;2.60;;
13218;SDS011;6674;49.152;11.918;2022-12-24T13:10:06;8.27;;;2.40;;
13218;SDS011;6674;49.152;11.918;2022-12-24T13:12:49;5.87;;;2.57;;
13218;SDS011;6674;49.152;11.918;2022-12-24T13:15:34;7.07;;;2.63;;
13218;SDS011;6674;49.152;11.918;2022-12-24T13:18:29;8.43;;;2.67;;
13218;SDS011;6674;49.152;11.918;2022-12-24T13:21:12;6.47;;;2.20;;
13218;SDS011;6674;49.152;11.918;2022-12-24T13:23:41;7.93;;;3.20;;
13218;SDS011;6674;49.152;11.918;2022-12-24T13:26:10;8.37;;;2.67;;
13218;SDS011;6674;49.152;11.918;2022-12-24T13:28:39;7.53;;;2.40;;
13218;SDS011;6674;49.152;11.918;2022-12-24T13:31:23;7.87;;;2.57;;
13218;SDS011;6674;49.152;11.918;2022-12-24T13:33:54;8.00;;;2.10;;
13218;SDS011;6674;49.152;11.918;2022-12-24T13:36:25;10.17;;;2.90;;
13218;SDS011;6674;49.152;11.918;2022-12-24T13:42:48;9.50;;;2.80;;
13218;SDS011;6674;49.152;11.918;2022-12-24T13:48:13;5.73;;;2.20;;
13218;SDS011;6674;49.152;11.918;2022-12-24T13:50:50;6.07;;;2.50;;
13218;SDS011;6674;49.152;11.918;2022-12-24T13:53:20;8.07;;;2.60;;
13218;SDS011;6674;49.152;11.918;2022-12-24T13:55:49;8.10;;;2.80;;
13218;SDS011;6674;49.152;11.918;2022-12-24T13:58:19;7.57;;;2.57;;
13218;SDS011;6674;49.152;11.918;2022-12-24T14:00:50;5.90;;;2.30;;
13218;SDS011;6674;49.152;11.918;2022-12-24T14:03:29;9.10;;;2.63;;
13218;SDS011;6674;49.152;11.918;2022-12-24T14:05:59;7.57;;;2.37;;
13218;SDS011;6674;49.152;11.918;2022-12-24T14:08:29;8.67;;;2.90;;
13218;SDS011;6674;49.152;11.918;2022-12-24T14:11:04;9.73;;;3.00;;
13218;SDS011;6674;49.152;11.918;2022-12-24T14:16:40;6.17;;;2.20;;
13218;SDS011;6674;49.152;11.918;2022-12-24T14:19:11;7.70;;;2.80;;
13218;SDS011;6674;49.152;11.918;2022-12-24T14:21:41;11.13;;;2.80;;
13218;SDS011;6674;49.152;11.918;2022-12-24T14:24:12;8.47;;;2.67;;
13218;SDS011;6674;49.152;11.918;2022-12-24T14:26:43;8.17;;;2.73;;
13218;SDS011;6674;49.152;11.918;2022-12-24T14:29:15;8.43;;;3.13;;
13218;SDS011;6674;49.152;11.918;2022-12-24T14:31:49;7.10;;;2.80;;
13218;SDS011;6674;49.152;11.918;2022-12-24T14:34:17;9.20;;;2.53;;
13218;SDS011;6674;49.152;11.918;2022-12-24T14:36:43;5.43;;;2.37;;
13218;SDS011;6674;49.152;11.918;2022-12-24T14:39:16;8.80;;;2.67;;
13218;SDS011;6674;49.152;11.918;2022-12-24T14:41:49;11.00;;;3.17;;
13218;SDS011;6674;49.152;11.918;2022-12-24T14:44:26;6.80;;;2.67;;
13218;SDS011;6674;49.152;11.918;2022-12-24T14:47:00;8.17;;;2.67;;
13218;SDS011;6674;49.152;11.918;2022-12-24T14:49:39;7.13;;;2.47;;
13218;SDS011;6674;49.152;11.918;2022-12-24T14:52:19;7.33;;;2.77;;
13218;SDS011;6674;49.152;11.918;2022-12-24T14:54:51;8.43;;;2.80;;
13218;SDS011;6674;49.152;11.918;2022-12-24T14:57:20;8.67;;;2.57;;
13218;SDS011;6674;49.152;11.918;2022-12-24T14:59:51;9.67;;;2.57;;
13218;SDS011;6674;49.152;11.918;2022-12-24T15:02:24;9.47;;;3.00;;
13218;SDS011;6674;49.152;11.918;2022-12-24T15:05:06;7.87;;;2.70;;
13218;SDS011;6674;49.152;11.918;2022-12-24T15:07:36;10.27;;;3.17;;
13218;SDS011;6674;49.152;11.918;2022-12-24T15:10:07;6.83;;;2.40;;
13218;SDS011;6674;49.152;11.918;2022-12-24T15:12:48;7.10;;;2.53;;
13218;SDS011;6674;49.152;11.918;2022-12-24T15:15:17;8.13;;;3.00;;
13218;SDS011;6674;49.152;11.918;2022-12-24T15:17:44;10.60;;;3.00;;
13218;SDS011;6674;49.152;11.918;2022-12-24T15:20:12;7.00;;;2.33;;